Time;durP1;ratioP1;P1;durP2;ratioP2;P2;SDS_P1;SDS_P2;PMS_P1;PMS_P2;Temp;Humidity;BMP_temperature;BMP_pressure;BME280_temperature;BME280_humidity;BME280_pressure;Samples;Min_cycle;Max_cycle;Signal;HPM_P1;HPM_P2
2023/06/19 00:01:53;;;;;;;7.03;6.38;;;;;;;23.34;39.15;95284.41;5008990;28;20657;-86
2023/06/19 00:04:19;;;;;;;6.68;6.07;;;;;;;23.31;39.24;95282.19;4990477;28;20247;-85
2023/06/19 00:06:44;;;;;;;8.93;6.50;;;;;;;23.32;39.26;95286.47;5015144;28;20270;-86
2023/06/19 00:09:09;;;;;;;6.90;6.25;;;;;;;23.30;39.57;95286.69;4990056;28;20218;-86
2023/06/19 00:11:35;;;;;;;7.07;6.40;;;;;;;23.26;39.50;95287.41;5008780;28;20202;-87
2023/06/19 00:14:00;;;;;;;6.60;6.00;;;;;;;23.22;39.82;95287.06;5009328;28;20206;-85
2023/06/19 00:16:26;;;;;;;6.85;6.15;;;;;;;23.23;39.82;95285.22;5016695;28;20187;-86
2023/06/19 00:18:55;;;;;;;6.68;6.07;;;;;;;23.17;40.11;95290.41;4992919;28;20643;-86
2023/06/19 00:21:23;;;;;;;6.47;5.88;;;;;;;23.21;40.00;95284.66;4989646;28;20615;-86
2023/06/19 00:23:48;;;;;;;6.50;5.93;;;;;;;23.16;40.33;95286.16;4989227;28;20198;-86
2023/06/19 00:26:14;;;;;;;6.45;5.82;;;;;;;23.23;40.24;95288.66;5014743;28;20238;-86
2023/06/19 00:28:43;;;;;;;6.88;6.18;;;;;;;23.28;40.38;95287.97;5016327;28;20191;-85
2023/06/19 00:31:08;;;;;;;6.50;5.90;;;;;;;23.25;40.57;95286.59;5008679;28;20653;-85
2023/06/19 00:33:35;;;;;;;6.15;5.65;;;;;;;23.28;40.44;95302.03;5006606;28;20273;-86
2023/06/19 00:36:01;;;;;;;6.60;6.10;;;;;;;23.26;40.67;95319.19;5000069;28;20211;-86
2023/06/19 00:38:26;;;;;;;8.80;6.50;;;;;;;23.13;41.07;95350.16;5009082;28;20263;-85
2023/06/19 00:40:52;;;;;;;6.40;5.80;;;;;;;23.12;41.04;95347.75;5010359;28;20189;-85
2023/06/19 00:43:17;;;;;;;7.90;5.78;;;;;;;22.85;42.20;95350.84;5015142;28;20186;-85
2023/06/19 00:45:43;;;;;;;7.95;5.50;;;;;;;22.66;43.13;95357.25;4993403;28;20203;-85
2023/06/19 00:48:08;;;;;;;8.40;5.00;;;;;;;22.66;43.70;95349.31;4993019;28;20189;-85
2023/06/19 00:50:34;;;;;;;5.80;4.38;;;;;;;22.37;44.71;95361.53;5007364;28;20217;-85
2023/06/19 00:53:04;;;;;;;5.85;4.90;;;;;;;22.40;44.58;95362.94;5008649;28;20183;-85
2023/06/19 00:55:30;;;;;;;9.48;4.13;;;;;;;22.19;45.87;95366.88;5009629;28;20211;-86
2023/06/19 00:57:55;;;;;;;6.60;4.25;;;;;;;22.14;46.09;95364.91;5003775;28;20181;-85
2023/06/19 01:00:21;;;;;;;4.85;4.20;;;;;;;22.02;46.61;95358.75;5008220;28;20174;-85
2023/06/19 01:02:47;;;;;;;4.68;4.28;;;;;;;22.19;46.28;95372.97;5017508;28;20186;-86
2023/06/19 01:05:13;;;;;;;5.47;4.30;;;;;;;21.78;48.15;95363.91;4989137;28;20203;-86
2023/06/19 01:08:02;;;;;;;6.80;4.78;;;;;;;21.83;49.69;95370.38;4993058;28;20186;-85
2023/06/19 01:10:31;;;;;;;6.20;4.90;;;;;;;21.63;51.46;95368.75;4996857;28;20233;-85
2023/06/19 01:13:02;;;;;;;6.20;5.00;;;;;;;21.43;52.53;95373.44;5006737;28;20195;-85
2023/06/19 01:15:28;;;;;;;4.95;4.55;;;;;;;21.33;53.49;95357.28;5005170;28;20341;-85
2023/06/19 01:17:55;;;;;;;6.85;5.00;;;;;;;21.46;52.98;95365.88;4982460;28;20200;-85
2023/06/19 01:20:20;;;;;;;5.10;4.60;;;;;;;21.44;52.91;95361.84;5004229;28;20179;-85
2023/06/19 01:22:46;;;;;;;4.88;4.43;;;;;;;21.47;53.12;95361.44;5015193;28;20318;-86
2023/06/19 01:25:13;;;;;;;6.10;4.88;;;;;;;21.49;53.21;95367.28;4989783;28;20694;-85
2023/06/19 01:27:40;;;;;;;4.68;4.28;;;;;;;21.36;53.85;95370.84;5016343;28;20201;-85
2023/06/19 01:30:06;;;;;;;5.30;4.05;;;;;;;21.21;54.74;95373.84;5013570;28;20249;-85
2023/06/19 01:32:45;;;;;;;4.80;4.40;;;;;;;21.20;54.94;95385.44;4995225;28;20190;-85
2023/06/19 01:35:13;;;;;;;7.82;4.47;;;;;;;21.08;55.92;95376.59;4979593;28;20238;-86
2023/06/19 01:37:40;;;;;;;4.35;3.95;;;;;;;21.16;55.77;95378.16;4994880;28;20270;-85
2023/06/19 01:40:09;;;;;;;3.55;3.25;;;;;;;21.01;56.07;95372.38;5003317;28;20268;-86
2023/06/19 01:42:35;;;;;;;3.05;2.70;;;;;;;21.01;55.61;95380.31;4992682;28;20201;-85
2023/06/19 01:45:02;;;;;;;4.63;2.63;;;;;;;21.02;55.39;95364.25;4998845;28;20230;-85
2023/06/19 01:47:28;;;;;;;2.63;2.42;;;;;;;21.02;54.76;95374.00;5018391;28;20210;-86
2023/06/19 01:49:54;;;;;;;2.88;2.40;;;;;;;21.11;54.54;95362.13;4991687;28;20194;-86
2023/06/19 01:52:19;;;;;;;4.22;3.00;;;;;;;21.24;53.47;95355.94;5018160;28;20261;-85
2023/06/19 01:54:44;;;;;;;3.58;3.20;;;;;;;21.21;54.06;95360.63;5007650;28;20214;-86
2023/06/19 01:57:10;;;;;;;3.33;3.10;;;;;;;21.21;54.16;95351.91;5008576;28;20276;-86
2023/06/19 01:59:36;;;;;;;3.72;3.40;;;;;;;21.28;54.63;95354.50;5005710;28;20187;-85
2023/06/19 02:02:03;;;;;;;3.38;3.15;;;;;;;21.17;55.65;95346.25;5011339;28;20193;-85
2023/06/19 02:04:29;;;;;;;4.88;3.40;;;;;;;21.34;56.18;95348.34;5010850;28;20297;-86
2023/06/19 02:06:54;;;;;;;4.55;3.30;;;;;;;21.32;56.63;95342.47;4985316;28;20222;-85
2023/06/19 02:09:19;;;;;;;3.53;3.22;;;;;;;21.36;56.43;95341.00;4983682;28;20639;-86
2023/06/19 02:11:45;;;;;;;5.35;3.42;;;;;;;21.17;58.34;95335.69;4998762;28;20317;-86
2023/06/19 02:14:11;;;;;;;3.90;3.53;;;;;;;21.30;58.95;95339.25;4999778;28;20218;-87
2023/06/19 02:16:36;;;;;;;3.65;3.35;;;;;;;21.35;58.32;95342.84;5002349;28;20187;-86
2023/06/19 02:19:10;;;;;;;3.38;3.10;;;;;;;21.29;58.06;95342.91;4999387;28;20232;-87
2023/06/19 02:24:55;;;;;;;4.43;2.92;;;;;;;21.23;59.30;95338.47;4971823;28;20224;-87
2023/06/19 02:27:21;;;;;;;3.28;3.00;;;;;;;21.24;58.52;95340.91;4939617;28;20185;-86
2023/06/19 02:29:47;;;;;;;2.92;2.65;;;;;;;21.17;58.31;95346.25;4940092;28;20749;-86
2023/06/19 02:32:12;;;;;;;3.25;2.97;;;;;;;21.12;59.39;95353.22;4938134;28;20243;-87
2023/06/19 02:34:38;;;;;;;2.95;2.75;;;;;;;21.10;58.95;95342.03;4948156;28;20228;-86
2023/06/19 02:37:03;;;;;;;2.90;2.70;;;;;;;21.02;58.38;95360.78;4921523;28;20208;-86
2023/06/19 02:39:29;;;;;;;3.17;2.58;;;;;;;20.96;59.23;95354.56;4926995;28;20186;-86
2023/06/19 02:41:54;;;;;;;3.08;2.78;;;;;;;20.89;58.90;95362.53;4941752;28;20687;-86
2023/06/19 02:44:20;;;;;;;2.70;2.50;;;;;;;20.95;58.96;95352.16;4916798;29;20777;-86
2023/06/19 02:46:45;;;;;;;2.50;2.30;;;;;;;20.80;58.40;95355.91;4951490;28;20654;-86
2023/06/19 02:49:10;;;;;;;2.80;2.60;;;;;;;20.74;57.43;95358.59;4952578;28;20613;-87
2023/06/19 02:51:36;;;;;;;3.10;2.70;;;;;;;20.74;57.48;95361.25;4939537;28;20295;-86
2023/06/19 02:54:01;;;;;;;2.47;2.28;;;;;;;20.80;58.16;95363.03;4946932;28;20249;-86
2023/06/19 02:56:28;;;;;;;3.13;2.83;;;;;;;20.65;58.29;95371.25;4972801;28;20189;-85
2023/06/19 02:58:53;;;;;;;2.95;2.65;;;;;;;20.63;57.29;95370.66;4959143;28;20220;-86
2023/06/19 03:01:19;;;;;;;3.00;2.55;;;;;;;20.46;57.29;95364.28;4963482;28;20195;-85
2023/06/19 03:03:46;;;;;;;2.40;2.20;;;;;;;20.50;57.63;95368.94;5008682;28;20218;-85
2023/06/19 03:06:13;;;;;;;2.67;2.30;;;;;;;20.56;57.27;95373.34;4995457;28;20182;-86
2023/06/19 03:08:38;;;;;;;2.63;2.42;;;;;;;20.65;56.79;95372.06;5010011;28;20316;-87
2023/06/19 03:11:04;;;;;;;2.55;2.35;;;;;;;20.64;56.34;95380.19;5009207;28;20293;-86
2023/06/19 03:13:47;;;;;;;2.90;2.58;;;;;;;20.48;56.55;95384.16;4992251;28;20200;-86
2023/06/19 03:16:14;;;;;;;2.58;2.38;;;;;;;20.61;56.32;95383.25;5008394;28;20710;-86
2023/06/19 03:18:40;;;;;;;3.17;2.88;;;;;;;20.72;56.62;95379.13;4997166;28;20234;-86
2023/06/19 03:21:05;;;;;;;3.33;2.83;;;;;;;20.67;56.08;95384.22;5013814;28;20213;-86
2023/06/19 03:23:30;;;;;;;2.28;2.08;;;;;;;20.63;55.69;95391.78;4991962;28;20191;-85
2023/06/19 03:25:57;;;;;;;2.55;2.35;;;;;;;20.67;55.86;95382.38;4995016;28;20214;-86
2023/06/19 03:28:22;;;;;;;2.65;2.45;;;;;;;20.74;55.48;95390.25;4993730;28;20202;-86
2023/06/19 03:30:47;;;;;;;2.30;2.05;;;;;;;20.78;55.33;95394.91;5015984;28;20195;-86
2023/06/19 03:33:13;;;;;;;3.10;2.85;;;;;;;20.67;55.77;95392.13;5012789;28;20260;-86
2023/06/19 03:35:38;;;;;;;2.60;2.40;;;;;;;20.59;55.85;95393.22;4987457;28;20258;-86
2023/06/19 03:38:03;;;;;;;2.22;2.03;;;;;;;20.52;55.98;95393.28;4992797;28;20186;-85
2023/06/19 03:40:29;;;;;;;3.75;2.50;;;;;;;20.53;56.27;95389.59;5010201;28;20221;-86
2023/06/19 03:42:54;;;;;;;2.40;2.20;;;;;;;20.68;55.67;95391.16;5010904;28;20186;-85
2023/06/19 03:45:19;;;;;;;2.95;2.65;;;;;;;20.67;55.77;95389.50;5015603;28;20248;-85
2023/06/19 03:47:45;;;;;;;2.70;2.50;;;;;;;20.59;55.89;95396.69;5010530;28;20210;-86
2023/06/19 03:50:10;;;;;;;2.75;2.55;;;;;;;20.78;55.24;95402.03;5007382;28;20273;-86
2023/06/19 03:52:36;;;;;;;2.30;2.10;;;;;;;20.75;55.46;95403.25;4990637;28;20194;-86
2023/06/19 03:55:03;;;;;;;2.50;2.30;;;;;;;20.70;55.37;95411.00;5019151;28;20213;-85
2023/06/19 03:57:28;;;;;;;3.88;2.28;;;;;;;20.82;55.01;95408.47;4992281;28;20273;-85
2023/06/19 03:59:53;;;;;;;1.77;1.67;;;;;;;20.92;55.38;95411.44;4993357;28;20216;-86
2023/06/19 04:02:19;;;;;;;3.80;2.17;;;;;;;20.80;55.47;95421.88;5013850;28;20178;-85
2023/06/19 04:04:44;;;;;;;2.45;2.25;;;;;;;20.87;55.78;95419.22;5010388;28;20210;-85
2023/06/19 04:07:10;;;;;;;1.90;1.80;;;;;;;20.71;55.98;95422.38;4991821;28;20191;-85
2023/06/19 04:09:35;;;;;;;2.58;2.38;;;;;;;20.81;56.15;95417.41;5008487;28;20237;-85
2023/06/19 04:12:01;;;;;;;2.40;2.20;;;;;;;21.01;55.37;95415.44;4992699;28;20736;-86
2023/06/19 04:14:26;;;;;;;3.35;2.35;;;;;;;21.00;55.64;95410.38;5004246;28;20618;-85
2023/06/19 04:16:52;;;;;;;2.53;2.33;;;;;;;21.03;55.59;95421.31;5007961;28;20179;-86
2023/06/19 04:19:17;;;;;;;2.50;2.30;;;;;;;21.13;55.56;95424.28;5002848;28;20188;-85
2023/06/19 04:21:42;;;;;;;2.35;2.15;;;;;;;21.05;56.05;95419.28;5004454;28;20197;-86
2023/06/19 04:24:08;;;;;;;2.60;2.40;;;;;;;21.33;55.24;95418.03;4986855;28;20234;-85
2023/06/19 04:26:37;;;;;;;2.63;2.42;;;;;;;21.44;54.86;95418.13;4990106;28;20718;-85
2023/06/19 04:29:03;;;;;;;2.88;2.67;;;;;;;21.23;56.00;95415.88;5000489;28;20206;-86
2023/06/19 04:31:29;;;;;;;2.47;2.20;;;;;;;21.54;54.92;95412.34;4989169;28;20705;-86
2023/06/19 04:34:05;;;;;;;2.60;1.90;;;;;;;21.43;55.34;95416.50;5007711;28;20646;-86
2023/06/19 04:37:05;;;;;;;2.47;2.28;;;;;;;21.39;55.75;95415.34;5006628;28;20190;-86
2023/06/19 04:39:36;;;;;;;2.38;2.08;;;;;;;21.52;54.95;95417.03;4990426;28;20307;-85
2023/06/19 04:42:10;;;;;;;2.50;2.30;;;;;;;21.64;55.03;95417.91;5019353;28;20182;-86
2023/06/19 04:44:45;;;;;;;2.70;2.50;;;;;;;21.65;55.18;95414.28;5021348;28;20207;-86
2023/06/19 04:47:22;;;;;;;2.70;2.50;;;;;;;21.60;55.38;95413.31;4980768;28;20217;-85
2023/06/19 04:50:02;;;;;;;2.55;2.35;;;;;;;21.33;56.59;95418.03;5008317;28;20209;-85
2023/06/19 04:52:37;;;;;;;3.03;2.70;;;;;;;21.21;57.05;95421.38;4972224;28;20198;-84
2023/06/19 04:55:11;;;;;;;2.53;2.33;;;;;;;21.37;56.68;95416.56;5011815;28;20619;-85
2023/06/19 04:57:41;;;;;;;3.45;2.38;;;;;;;21.57;56.63;95411.13;5025302;28;20187;-85
2023/06/19 05:00:10;;;;;;;2.35;2.15;;;;;;;21.57;56.21;95417.19;5012625;28;20206;-85
2023/06/19 05:02:48;;;;;;;;;;;;;;;;;;;;;
2023/06/19 05:05:22;;;;;;;3.45;2.45;;;;;;;21.58;56.64;95421.47;5010065;28;20692;-85
2023/06/19 05:07:52;;;;;;;2.60;2.40;;;;;;;21.52;57.02;95424.97;5004466;28;20190;-85
2023/06/19 05:10:26;;;;;;;2.60;2.40;;;;;;;21.55;56.77;95434.28;4988395;28;20676;-85
2023/06/19 05:13:18;;;;;;;2.63;2.42;;;;;;;21.77;56.03;95433.66;5024511;28;20188;-84
2023/06/19 05:15:51;;;;;;;2.72;2.28;;;;;;;21.74;56.50;95431.47;4928380;29;20731;-86
2023/06/19 05:18:17;;;;;;;2.80;2.60;;;;;;;21.99;55.98;95433.19;4905253;29;20244;-85
2023/06/19 05:20:48;;;;;;;2.50;2.30;;;;;;;21.97;56.36;95437.91;4928454;29;20193;-86
2023/06/19 05:23:16;;;;;;;2.80;2.60;;;;;;;21.78;56.80;95429.16;4915519;29;20193;-86
2023/06/19 05:25:45;;;;;;;3.00;2.60;;;;;;;21.97;56.58;95438.72;4915984;29;20878;-85
2023/06/19 05:28:30;;;;;;;2.42;2.22;;;;;;;21.93;56.64;95428.81;4911649;29;20194;-85
2023/06/19 05:30:55;;;;;;;2.58;2.38;;;;;;;22.20;56.01;95437.25;4910471;29;20641;-87
2023/06/19 05:33:23;;;;;;;3.72;2.58;;;;;;;21.99;56.65;95438.47;4930170;29;20264;-83
2023/06/19 05:35:52;;;;;;;2.85;2.65;;;;;;;22.13;56.66;95434.69;4909454;29;20244;-83
2023/06/19 05:38:20;;;;;;;2.50;2.30;;;;;;;22.33;55.66;95437.09;4926324;29;20293;-81
2023/06/19 05:40:45;;;;;;;2.60;2.40;;;;;;;22.47;55.39;95427.94;4936256;29;20246;-82
2023/06/19 05:43:10;;;;;;;2.55;2.35;;;;;;;22.66;54.63;95430.53;4917002;29;20225;-82
2023/06/19 05:45:36;;;;;;;2.60;2.40;;;;;;;22.65;54.42;95435.03;4932979;29;20315;-82
2023/06/19 05:48:01;;;;;;;3.08;2.63;;;;;;;22.51;55.26;95429.09;4925259;29;20276;-82
2023/06/19 05:50:27;;;;;;;4.40;2.70;;;;;;;22.35;55.93;95429.72;4904149;29;20677;-82
2023/06/19 05:52:52;;;;;;;3.00;2.70;;;;;;;22.37;56.49;95435.63;4997023;28;20205;-82
2023/06/19 05:55:17;;;;;;;3.13;2.80;;;;;;;22.45;56.30;95435.31;5001444;28;20234;-82
2023/06/19 05:57:43;;;;;;;3.25;3.03;;;;;;;22.35;56.76;95435.00;5001614;28;20616;-82
2023/06/19 06:00:13;;;;;;;3.60;2.78;;;;;;;22.42;56.64;95429.66;4986300;28;20592;-82
2023/06/19 06:02:39;;;;;;;3.33;3.03;;;;;;;22.51;57.31;95434.41;4982106;28;20186;-81
2023/06/19 06:05:05;;;;;;;2.97;2.78;;;;;;;22.44;57.33;95433.69;5006034;28;20567;-81
2023/06/19 06:07:30;;;;;;;2.75;2.55;;;;;;;22.57;56.75;95438.00;5017484;28;20657;-80
2023/06/19 06:09:56;;;;;;;3.08;2.88;;;;;;;22.41;57.37;95444.72;5000705;28;20248;-80
2023/06/19 06:12:21;;;;;;;3.50;3.20;;;;;;;22.71;56.62;95447.38;4986779;28;20260;-81
2023/06/19 06:14:49;;;;;;;3.25;3.00;;;;;;;22.56;57.46;95445.13;5012452;28;20226;-80
2023/06/19 06:17:15;;;;;;;4.85;3.42;;;;;;;22.74;57.12;95454.03;5036395;28;20163;-80
2023/06/19 06:19:40;;;;;;;3.72;3.42;;;;;;;23.00;56.49;95469.56;5024792;28;20182;-79
2023/06/19 06:22:07;;;;;;;3.92;3.63;;;;;;;23.18;55.57;95469.50;5019507;28;20179;-80
2023/06/19 06:24:33;;;;;;;3.30;3.00;;;;;;;23.34;55.20;95477.81;5047936;28;20213;-80
2023/06/19 06:26:58;;;;;;;3.53;3.22;;;;;;;23.73;54.32;95479.81;5014976;28;20218;-80
2023/06/19 06:29:24;;;;;;;3.40;2.95;;;;;;;25.48;49.09;95487.44;5013113;28;20163;-79
2023/06/19 06:31:52;;;;;;;4.38;3.70;;;;;;;25.79;47.53;95494.03;5037409;28;20205;-79
2023/06/19 06:34:18;;;;;;;3.97;3.65;;;;;;;27.55;43.38;95495.50;5052917;28;20202;-79
2023/06/19 06:36:43;;;;;;;3.45;3.15;;;;;;;26.75;44.76;95495.28;5039092;28;20206;-80
2023/06/19 06:39:08;;;;;;;8.18;3.80;;;;;;;27.35;44.08;95499.63;5028048;28;20174;-79
2023/06/19 06:41:34;;;;;;;3.80;3.30;;;;;;;27.61;43.65;95497.97;5026447;28;20168;-80
2023/06/19 06:44:00;;;;;;;3.75;3.45;;;;;;;28.81;41.46;95502.63;5042462;28;20222;-78
2023/06/19 06:46:27;;;;;;;3.60;3.30;;;;;;;28.82;40.63;95506.13;5047504;28;20178;-80
2023/06/19 06:48:52;;;;;;;3.97;3.58;;;;;;;28.44;40.89;95508.09;5026417;28;20195;-80
2023/06/19 06:51:17;;;;;;;4.82;4.00;;;;;;;27.43;43.16;95502.88;4989483;28;20198;-80
2023/06/19 06:53:43;;;;;;;4.40;4.00;;;;;;;27.83;42.63;95515.72;5007035;28;20220;-80
2023/06/19 06:56:08;;;;;;;3.97;3.50;;;;;;;26.69;44.83;95509.63;5004339;28;20214;-80
2023/06/19 06:58:33;;;;;;;3.63;3.40;;;;;;;27.00;44.97;95512.59;4992516;28;20591;-81
2023/06/19 07:00:59;;;;;;;3.70;3.40;;;;;;;27.49;43.51;95517.88;5001129;28;20193;-79
2023/06/19 07:03:24;;;;;;;3.85;3.55;;;;;;;29.19;39.66;95522.78;4986814;28;20189;-80
2023/06/19 07:05:49;;;;;;;3.35;3.08;;;;;;;30.15;37.65;95522.00;5008099;28;20264;-80
2023/06/19 07:08:15;;;;;;;3.70;3.40;;;;;;;32.55;33.18;95531.97;4990533;28;20183;-79
2023/06/19 07:10:40;;;;;;;3.67;3.38;;;;;;;31.42;34.51;95538.63;5002917;28;20215;-80
2023/06/19 07:13:05;;;;;;;3.83;3.53;;;;;;;32.09;33.37;95545.09;4985475;28;20234;-80
2023/06/19 07:15:31;;;;;;;40.22;6.43;;;;;;;32.10;32.76;95547.47;5001045;28;20206;-79
2023/06/19 07:17:56;;;;;;;9.85;3.90;;;;;;;33.06;31.16;95555.59;4988146;28;20175;-80
2023/06/19 07:20:22;;;;;;;4.57;2.97;;;;;;;31.81;33.07;95547.47;5000359;28;20179;-79
2023/06/19 07:22:47;;;;;;;3.30;3.05;;;;;;;32.01;32.10;95557.25;5006081;28;20279;-79
2023/06/19 07:25:13;;;;;;;3.33;3.03;;;;;;;34.06;29.58;95558.94;4991619;28;20705;-79
2023/06/19 07:27:40;;;;;;;3.22;3.00;;;;;;;34.51;29.27;95559.22;4999966;28;20655;-80
2023/06/19 07:30:06;;;;;;;15.65;4.72;;;;;;;33.00;31.37;95558.63;5005155;28;20187;-80
2023/06/19 07:32:31;;;;;;;4.30;3.33;;;;;;;32.23;31.74;95551.38;5016705;28;20191;-80
2023/06/19 07:34:57;;;;;;;5.68;4.32;;;;;;;32.24;32.29;95558.34;5004218;28;20210;-79
2023/06/19 07:37:22;;;;;;;18.08;5.25;;;;;;;32.40;32.56;95557.13;4998796;28;20202;-80
2023/06/19 07:39:49;;;;;;;3.80;3.50;;;;;;;32.59;30.98;95553.69;5014509;28;20202;-80
2023/06/19 07:42:15;;;;;;;12.43;3.97;;;;;;;32.54;31.18;95561.84;4992399;28;20739;-80
2023/06/19 07:44:41;;;;;;;3.40;3.20;;;;;;;31.46;33.17;95553.09;4984711;28;20254;-80
2023/06/19 07:47:07;;;;;;;34.97;6.45;;;;;;;31.81;32.39;95563.59;5017101;28;20273;-80
2023/06/19 07:49:32;;;;;;;3.17;2.97;;;;;;;32.50;31.79;95566.16;5003121;28;20182;-80
2023/06/19 07:51:58;;;;;;;3.10;2.90;;;;;;;32.66;31.20;95570.28;5010737;28;20249;-80
2023/06/19 07:54:23;;;;;;;4.15;3.60;;;;;;;30.08;35.93;95564.34;5019420;28;20214;-80
2023/06/19 07:56:48;;;;;;;3.88;3.58;;;;;;;29.81;36.63;95558.44;5015353;28;20209;-80
2023/06/19 07:59:14;;;;;;;3.90;3.60;;;;;;;28.83;38.35;95566.50;5012836;28;20190;-80
2023/06/19 08:01:39;;;;;;;4.47;3.28;;;;;;;28.12;39.84;95565.06;5000935;28;20221;-81
2023/06/19 08:04:04;;;;;;;5.13;3.20;;;;;;;27.30;40.36;95571.56;5008693;28;20523;-80
2023/06/19 08:06:30;;;;;;;10.57;4.13;;;;;;;28.79;38.02;95579.56;4983433;28;20685;-80
2023/06/19 08:08:55;;;;;;;3.67;3.08;;;;;;;29.19;36.59;95575.47;4997130;28;20281;-80
2023/06/19 08:11:20;;;;;;;3.17;2.85;;;;;;;28.12;38.74;95569.59;5008277;28;20222;-80
2023/06/19 08:13:46;;;;;;;6.47;3.38;;;;;;;27.73;39.60;95564.50;5009717;28;20183;-80
2023/06/19 08:16:11;;;;;;;7.97;3.33;;;;;;;28.16;39.23;95568.00;5014401;28;20307;-78
2023/06/19 08:18:36;;;;;;;4.93;3.72;;;;;;;27.19;41.31;95567.19;5003049;28;20643;-80
2023/06/19 08:21:02;;;;;;;3.58;3.20;;;;;;;27.22;41.52;95569.38;5007879;28;20636;-80
2023/06/19 08:23:27;;;;;;;3.92;3.63;;;;;;;28.79;39.20;95572.34;5024821;28;20218;-78
2023/06/19 08:25:52;;;;;;;3.22;2.92;;;;;;;28.82;38.84;95571.06;5000313;28;20229;-81
2023/06/19 08:28:18;;;;;;;6.32;3.45;;;;;;;28.83;38.84;95561.97;4987570;28;20182;-78
2023/06/19 08:30:45;;;;;;;3.75;3.35;;;;;;;29.04;37.87;95563.66;5000825;28;20249;-80
2023/06/19 08:33:10;;;;;;;3.30;2.95;;;;;;;29.18;38.06;95566.66;4988701;28;20924;-80
2023/06/19 08:35:36;;;;;;;3.20;2.95;;;;;;;29.30;38.22;95563.72;5003538;28;20226;-80
2023/06/19 08:38:01;;;;;;;5.32;3.10;;;;;;;29.53;38.01;95546.41;5016447;28;20195;-81
2023/06/19 08:40:26;;;;;;;3.42;2.88;;;;;;;29.69;37.01;95552.56;5003272;28;20213;-79
2023/06/19 08:42:52;;;;;;;3.78;3.42;;;;;;;27.99;39.56;95562.00;5012425;28;20274;-84
2023/06/19 08:45:20;;;;;;;3.40;2.95;;;;;;;28.43;39.75;95559.91;4988708;28;20227;-79
2023/06/19 08:47:47;;;;;;;8.40;3.38;;;;;;;29.31;37.50;95558.09;4998441;28;20197;-79
2023/06/19 08:50:12;;;;;;;3.15;2.95;;;;;;;28.83;38.67;95561.97;5014724;28;20273;-80
2023/06/19 08:52:37;;;;;;;6.38;3.50;;;;;;;29.13;37.95;95558.59;5012849;28;20269;-80
2023/06/19 08:55:03;;;;;;;3.75;2.78;;;;;;;29.51;36.65;95557.38;4981201;28;20241;-81
2023/06/19 08:57:37;;;;;;;4.05;2.67;;;;;;;29.64;36.32;95563.25;4999498;28;20599;-80
2023/06/19 09:00:05;;;;;;;3.17;2.50;;;;;;;30.13;35.63;95566.22;5023519;28;20187;-80
2023/06/19 09:02:46;;;;;;;2.70;2.50;;;;;;;29.23;36.49;95563.16;5012252;28;20183;-80
2023/06/19 09:05:16;;;;;;;3.88;2.90;;;;;;;28.33;39.00;95557.19;4997460;28;20236;-80
2023/06/19 09:07:42;;;;;;;2.90;2.70;;;;;;;29.47;37.62;95561.59;4983381;28;20278;-79
2023/06/19 09:10:13;;;;;;;4.90;2.70;;;;;;;29.36;36.88;95560.00;4997071;28;20210;-77
2023/06/19 09:12:38;;;;;;;3.15;2.80;;;;;;;28.92;38.28;95565.78;5019317;28;20190;-79
2023/06/19 09:15:11;;;;;;;3.35;2.60;;;;;;;29.36;38.30;95570.69;4995779;28;20890;-79
2023/06/19 09:17:37;;;;;;;4.25;2.92;;;;;;;28.82;38.05;95568.38;4998744;28;20206;-78
2023/06/19 09:20:05;;;;;;;2.88;2.65;;;;;;;28.87;38.72;95568.38;5002905;28;20540;-79
2023/06/19 09:22:30;;;;;;;3.53;3.22;;;;;;;28.80;38.47;95562.47;5004165;28;20214;-79
2023/06/19 09:25:00;;;;;;;3.97;3.33;;;;;;;28.26;40.33;95552.03;5014742;28;20288;-78
2023/06/19 09:27:32;;;;;;;3.17;2.92;;;;;;;29.13;38.98;95566.63;5010787;28;20561;-79
2023/06/19 09:29:57;;;;;;;6.22;3.40;;;;;;;28.75;39.80;95562.47;4999691;28;20206;-78
2023/06/19 09:32:25;;;;;;;4.03;3.60;;;;;;;29.00;38.85;95549.22;4984619;28;20235;-78
2023/06/19 09:34:54;;;;;;;3.30;3.10;;;;;;;29.20;39.06;95550.34;4993945;28;20272;-79
2023/06/19 09:37:24;;;;;;;3.92;3.63;;;;;;;29.29;38.53;95557.56;5000565;28;20260;-79
2023/06/19 09:40:09;;;;;;;4.03;3.25;;;;;;;29.22;37.08;95558.88;4980136;28;20187;-78
2023/06/19 09:42:35;;;;;;;3.80;3.50;;;;;;;28.94;37.95;95555.63;4999574;28;20183;-79
2023/06/19 09:45:15;;;;;;;3.80;3.50;;;;;;;29.13;37.26;95553.25;5017701;28;20211;-79
2023/06/19 09:47:45;;;;;;;3.53;3.22;;;;;;;28.60;39.04;95557.84;4995142;28;20643;-78
2023/06/19 09:50:12;;;;;;;3.67;3.38;;;;;;;28.87;38.90;95556.88;4982887;28;20285;-78
2023/06/19 09:52:39;;;;;;;4.00;3.33;;;;;;;28.53;39.30;95546.59;4997956;28;20195;-79
2023/06/19 09:55:06;;;;;;;3.65;3.35;;;;;;;28.82;39.70;95543.53;4996737;28;20211;-78
2023/06/19 09:57:32;;;;;;;4.65;4.25;;;;;;;28.19;40.82;95540.81;4984446;28;20268;-80
2023/06/19 09:59:59;;;;;;;3.80;3.25;;;;;;;27.92;40.81;95539.03;4994326;28;20183;-78
2023/06/19 10:02:26;;;;;;;3.85;3.55;;;;;;;28.25;40.33;95544.28;4987373;28;20190;-78
2023/06/19 10:04:55;;;;;;;3.92;3.50;;;;;;;28.50;39.95;95534.56;4985246;28;20604;-78
2023/06/19 10:07:33;;;;;;;4.07;3.30;;;;;;;28.57;40.09;95546.91;4996714;28;20174;-79
2023/06/19 10:09:59;;;;;;;3.72;3.42;;;;;;;28.66;39.25;95550.69;4975135;28;20306;-79
2023/06/19 10:12:44;;;;;;;5.68;3.78;;;;;;;28.79;39.42;95545.63;5021701;28;20199;-79
2023/06/19 10:15:23;;;;;;;3.40;3.10;;;;;;;28.55;39.59;95551.72;5005547;28;20207;-79
2023/06/19 10:17:49;;;;;;;3.25;2.95;;;;;;;28.38;39.17;95544.69;5026405;28;20189;-79
2023/06/19 10:20:20;;;;;;;3.60;3.30;;;;;;;28.37;40.99;95545.75;5020787;28;20202;-79
2023/06/19 10:22:56;;;;;;;3.55;3.25;;;;;;;28.34;40.00;95548.91;5003682;28;20194;-79
2023/06/19 10:25:23;;;;;;;4.32;3.65;;;;;;;27.92;40.43;95546.25;5005541;28;20360;-79
2023/06/19 10:27:52;;;;;;;4.63;3.72;;;;;;;28.17;39.83;95546.38;5000752;28;20232;-79
2023/06/19 10:30:19;;;;;;;3.63;3.33;;;;;;;28.44;40.44;95543.63;5006141;28;20186;-78
2023/06/19 10:32:44;;;;;;;3.80;3.50;;;;;;;28.59;39.50;95539.41;4995705;28;20187;-79
2023/06/19 10:35:13;;;;;;;4.00;3.67;;;;;;;29.01;38.92;95537.47;5000860;28;20682;-78
2023/06/19 10:37:39;;;;;;;3.55;3.25;;;;;;;29.71;38.01;95535.16;4986541;28;20194;-79
2023/06/19 10:40:08;;;;;;;4.55;3.38;;;;;;;29.66;37.91;95534.34;4998044;28;20229;-80
2023/06/19 10:42:34;;;;;;;4.10;3.80;;;;;;;29.45;39.02;95531.66;5003949;28;20175;-80
2023/06/19 10:45:02;;;;;;;4.70;4.20;;;;;;;29.05;38.85;95527.84;5016771;28;20281;-79
2023/06/19 10:47:28;;;;;;;3.90;3.70;;;;;;;29.44;38.77;95535.41;5006143;28;20183;-80
2023/06/19 10:49:54;;;;;;;4.53;4.13;;;;;;;29.91;37.92;95528.97;4986257;28;20305;-80
2023/06/19 10:52:20;;;;;;;4.18;3.70;;;;;;;30.14;37.79;95527.66;5011982;28;20301;-81
2023/06/19 10:54:45;;;;;;;4.13;3.83;;;;;;;29.93;37.98;95520.69;5003367;28;20631;-80
2023/06/19 10:57:12;;;;;;;4.00;3.70;;;;;;;29.63;37.16;95524.19;4995938;28;20305;-80
2023/06/19 10:59:39;;;;;;;3.53;3.30;;;;;;;29.87;36.79;95525.25;5007084;28;20351;-80
2023/06/19 11:02:05;;;;;;;3.65;3.35;;;;;;;29.37;37.60;95520.66;5017997;28;20656;-80
2023/06/19 11:04:31;;;;;;;4.07;3.22;;;;;;;29.10;37.88;95523.56;5015985;28;20306;-80
2023/06/19 11:06:56;;;;;;;4.50;4.13;;;;;;;29.35;39.11;95523.63;5023649;28;20194;-80
2023/06/19 11:09:22;;;;;;;5.88;3.95;;;;;;;29.35;39.11;95523.63;5001335;28;20213;-79
2023/06/19 11:11:48;;;;;;;4.18;3.88;;;;;;;29.45;38.45;95531.66;5015592;28;20682;-80
2023/06/19 11:14:15;;;;;;;5.43;4.93;;;;;;;28.88;39.98;95526.41;5004658;28;20215;-80
2023/06/19 11:16:42;;;;;;;4.90;4.40;;;;;;;29.23;39.81;95518.50;4982699;28;20183;-79
2023/06/19 11:19:08;;;;;;;4.93;4.18;;;;;;;29.35;39.55;95515.59;5002666;28;20599;-80
2023/06/19 11:21:38;;;;;;;5.00;4.20;;;;;;;29.47;38.46;95513.44;5004364;28;20183;-80
2023/06/19 11:24:06;;;;;;;4.38;3.97;;;;;;;29.53;38.89;95515.09;4996675;28;20631;-80
2023/06/19 11:26:37;;;;;;;4.75;4.35;;;;;;;29.88;38.57;95511.59;5021240;28;20547;-80
2023/06/19 11:29:13;;;;;;;4.22;3.92;;;;;;;29.59;38.27;95513.19;5006540;28;20620;-80
2023/06/19 11:31:39;;;;;;;5.20;4.68;;;;;;;27.72;42.10;95522.06;4998821;28;20198;-80
2023/06/19 11:34:04;;;;;;;4.60;4.05;;;;;;;28.30;41.29;95509.66;5003930;28;20206;-81
2023/06/19 11:36:29;;;;;;;4.25;3.95;;;;;;;28.72;39.29;95506.88;5015504;28;20187;-81
2023/06/19 11:38:55;;;;;;;4.30;4.00;;;;;;;28.71;39.29;95507.94;4991703;28;20192;-80